createdAt,value
2023-07-14T00:00:41.221Z,2.30
2023-07-14T00:02:51.897Z,2.38
2023-07-14T00:05:03.324Z,1.80
2023-07-14T00:07:16.575Z,2.20
2023-07-14T00:09:28.099Z,2.40
2023-07-14T00:11:36.226Z,2.50
2023-07-14T00:13:44.475Z,1.90
2023-07-14T00:15:52.520Z,2.47
2023-07-14T00:18:05.679Z,2.22
2023-07-14T00:20:32.121Z,2.15
2023-07-14T00:22:41.106Z,2.72
2023-07-14T00:24:49.077Z,2.70
2023-07-14T00:27:00.530Z,2.30
2023-07-14T00:29:18.457Z,2.22
2023-07-14T00:31:27.154Z,2.65
2023-07-14T00:33:35.091Z,2.50
2023-07-14T00:35:46.597Z,1.98
2023-07-14T00:37:53.183Z,2.45
2023-07-14T00:40:08.233Z,1.98
2023-07-14T00:42:19.277Z,2.22
2023-07-14T00:44:27.957Z,1.90
2023-07-14T00:46:37.399Z,2.13
2023-07-14T00:48:47.073Z,2.00
2023-07-14T00:51:02.420Z,1.75
2023-07-14T00:53:14.395Z,2.60
2023-07-14T00:55:33.850Z,1.60
2023-07-14T00:57:42.256Z,2.30
2023-07-14T00:59:50.318Z,2.20
2023-07-14T01:02:20.791Z,2.42
2023-07-14T01:04:29.471Z,2.80
2023-07-14T01:06:42.857Z,2.10
2023-07-14T01:09:01.965Z,1.98
2023-07-14T01:11:10.172Z,2.30
2023-07-14T01:13:17.235Z,1.80
2023-07-14T01:15:25.775Z,2.05
2023-07-14T01:17:38.188Z,1.95
2023-07-14T01:19:51.300Z,2.30
2023-07-14T01:22:10.884Z,2.22
2023-07-14T01:24:28.594Z,2.40
2023-07-14T01:27:03.838Z,2.30
2023-07-14T01:29:12.203Z,1.80
2023-07-14T01:31:24.815Z,2.33
2023-07-14T01:33:35.155Z,1.85
2023-07-14T01:35:47.114Z,2.15
2023-07-14T01:37:55.580Z,2.10
2023-07-14T01:40:04.094Z,2.78
2023-07-14T01:42:14.953Z,2.20
2023-07-14T01:44:22.432Z,2.03
2023-07-14T01:46:31.054Z,2.50
2023-07-14T01:48:43.979Z,2.55
2023-07-14T01:50:57.490Z,2.15
2023-07-14T01:53:12.099Z,2.30
2023-07-14T01:55:23.493Z,1.77
2023-07-14T01:57:38.142Z,2.67
2023-07-14T01:59:50.111Z,1.90
2023-07-14T02:02:01.865Z,2.55
2023-07-14T02:04:15.753Z,2.10
2023-07-14T02:06:23.907Z,2.70
2023-07-14T02:08:33.332Z,2.20
2023-07-14T02:10:41.599Z,3.00
2023-07-14T02:12:53.283Z,2.58
2023-07-14T02:15:07.253Z,2.40
2023-07-14T02:17:24.851Z,2.00
2023-07-14T02:19:33.449Z,3.20
2023-07-14T02:21:41.884Z,2.55
2023-07-14T02:23:51.801Z,2.20
2023-07-14T02:26:11.223Z,3.00
2023-07-14T02:28:21.848Z,2.20
2023-07-14T02:30:40.918Z,2.40
2023-07-14T02:32:54.546Z,2.50
2023-07-14T02:35:08.734Z,2.50
2023-07-14T02:37:52.578Z,2.30
2023-07-14T02:40:06.294Z,2.70
2023-07-14T02:42:14.195Z,2.53
2023-07-14T02:44:30.118Z,2.25
2023-07-14T02:46:44.429Z,2.40
2023-07-14T02:48:55.698Z,2.55
2023-07-14T02:51:06.364Z,3.15
2023-07-14T02:53:15.078Z,2.88
2023-07-14T02:55:23.288Z,2.40
2023-07-14T02:57:31.291Z,2.30
2023-07-14T02:59:42.330Z,2.60
2023-07-14T03:01:53.034Z,2.15
2023-07-14T03:04:01.208Z,2.58
2023-07-14T03:06:09.850Z,2.60
2023-07-14T03:08:19.568Z,2.50
2023-07-14T03:10:27.588Z,2.47
2023-07-14T03:12:35.944Z,2.55
2023-07-14T03:14:46.833Z,2.88
2023-07-14T03:16:55.085Z,2.67
2023-07-14T03:19:03.098Z,2.55
2023-07-14T03:21:12.339Z,2.70
2023-07-14T03:23:20.564Z,3.13
2023-07-14T03:25:30.284Z,3.08
2023-07-14T03:27:38.586Z,3.13
2023-07-14T03:29:49.716Z,3.88
2023-07-14T03:31:57.798Z,3.13
2023-07-14T03:34:05.663Z,2.50
2023-07-14T03:36:15.868Z,2.88
2023-07-14T03:38:24.209Z,3.65
2023-07-14T03:40:32.748Z,3.17
2023-07-14T03:42:41.555Z,3.58
2023-07-14T03:44:53.181Z,3.13
2023-07-14T03:47:03.875Z,2.72
2023-07-14T03:49:11.988Z,2.88
2023-07-14T03:51:20.811Z,3.00
2023-07-14T03:53:28.910Z,2.63
2023-07-14T03:55:36.828Z,2.72
2023-07-14T03:58:01.965Z,3.35
2023-07-14T04:00:22.623Z,2.05
2023-07-14T04:02:32.877Z,2.97
2023-07-14T04:04:40.867Z,2.60
2023-07-14T04:06:49.181Z,3.00
2023-07-14T04:08:58.560Z,2.60
2023-07-14T04:11:06.464Z,2.63
2023-07-14T04:13:15.336Z,2.47
2023-07-14T04:15:25.863Z,2.25
2023-07-14T04:17:34.421Z,2.63
2023-07-14T04:19:42.573Z,2.00
2023-07-14T04:21:51.235Z,2.80
2023-07-14T04:24:00.485Z,2.80
2023-07-14T04:26:09.278Z,3.10
2023-07-14T04:28:17.197Z,2.67
2023-07-14T04:30:27.749Z,2.55
2023-07-14T04:32:35.935Z,2.38
2023-07-14T04:34:45.005Z,3.03
2023-07-14T04:36:53.199Z,2.95
2023-07-14T04:39:06.905Z,2.90
2023-07-14T04:41:17.335Z,2.80
2023-07-14T04:43:25.828Z,3.00
2023-07-14T04:45:41.848Z,3.08
2023-07-14T04:47:52.388Z,3.28
2023-07-14T04:50:00.578Z,2.80
2023-07-14T04:52:08.758Z,3.20
2023-07-14T04:54:16.971Z,3.05
2023-07-14T04:56:22.896Z,3.30
2023-07-14T04:58:31.007Z,2.65
2023-07-14T05:00:43.836Z,2.72
2023-07-14T05:02:52.247Z,2.80
2023-07-14T05:05:16.297Z,2.50
2023-07-14T05:07:27.175Z,3.10
2023-07-14T05:09:35.873Z,3.38
2023-07-14T05:11:44.549Z,2.50
2023-07-14T05:13:55.584Z,2.53
2023-07-14T05:16:06.419Z,3.10
2023-07-14T05:18:14.914Z,3.20
2023-07-14T05:20:23.860Z,2.83
2023-07-14T05:22:32.446Z,2.67
2023-07-14T05:24:40.402Z,3.00
2023-07-14T05:26:48.446Z,2.90
2023-07-14T05:28:56.419Z,2.30
2023-07-14T05:31:09.331Z,3.00
2023-07-14T05:33:17.931Z,3.55
2023-07-14T05:35:26.685Z,2.80
2023-07-14T05:37:32.042Z,3.05
2023-07-14T05:39:40.260Z,3.10
2023-07-14T05:41:48.381Z,2.90
2023-07-14T05:43:56.448Z,3.15
2023-07-14T05:46:07.125Z,2.90
2023-07-14T05:48:12.834Z,3.72
2023-07-14T05:50:20.977Z,2.88
2023-07-14T05:52:29.058Z,3.50
2023-07-14T05:54:37.037Z,2.55
2023-07-14T05:56:45.097Z,2.72
2023-07-14T05:58:53.388Z,2.40
2023-07-14T06:01:01.700Z,2.80
2023-07-14T06:03:17.975Z,2.90
2023-07-14T06:05:27.209Z,2.73
2023-07-14T06:07:35.488Z,2.57
2023-07-14T06:09:45.102Z,2.83
2023-07-14T06:11:53.224Z,2.60
2023-07-14T06:14:01.666Z,2.30
2023-07-14T06:16:09.644Z,2.40
2023-07-14T06:18:21.596Z,2.10
2023-07-14T06:20:31.948Z,2.60
2023-07-14T06:22:40.683Z,2.63
2023-07-14T06:24:49.714Z,2.83
2023-07-14T06:26:58.059Z,2.70
2023-07-14T06:29:06.785Z,2.30
2023-07-14T06:31:17.609Z,2.57
2023-07-14T06:33:28.660Z,2.60
2023-07-14T06:35:36.552Z,2.47
2023-07-14T06:37:44.494Z,2.60
2023-07-14T06:39:52.460Z,2.83
2023-07-14T06:42:00.564Z,2.57
2023-07-14T06:44:24.682Z,2.23
2023-07-14T06:46:35.458Z,2.37
2023-07-14T06:48:47.348Z,2.13
2023-07-14T06:50:55.472Z,2.23
2023-07-14T06:53:03.772Z,2.50
2023-07-14T06:55:11.020Z,1.90
2023-07-14T06:57:19.141Z,2.43
2023-07-14T06:59:27.332Z,2.90
2023-07-14T07:01:35.513Z,1.93
2023-07-14T07:03:46.481Z,1.90
2023-07-14T07:05:55.294Z,1.70
2023-07-14T07:08:03.382Z,2.10
2023-07-14T07:10:13.011Z,2.20
2023-07-14T07:12:22.451Z,1.80
2023-07-14T07:14:31.510Z,2.37
2023-07-14T07:16:40.362Z,2.50
2023-07-14T07:18:51.454Z,1.80
2023-07-14T07:20:59.708Z,2.10
2023-07-14T07:23:08.426Z,2.30
2023-07-14T07:25:18.330Z,2.03
2023-07-14T07:27:26.393Z,2.20
2023-07-14T07:29:35.347Z,2.40
2023-07-14T07:31:43.602Z,2.03
2023-07-14T07:33:54.520Z,1.83
2023-07-14T07:36:16.240Z,1.90
2023-07-14T07:38:24.501Z,2.07
2023-07-14T07:40:33.043Z,2.10
2023-07-14T07:42:41.810Z,1.60
2023-07-14T07:44:49.947Z,1.87
2023-07-14T07:47:14.130Z,1.90
2023-07-14T07:49:24.702Z,1.93
2023-07-14T07:51:33.690Z,1.73
2023-07-14T07:53:42.010Z,1.73
2023-07-14T07:55:56.254Z,2.20
2023-07-14T07:58:04.428Z,2.00
2023-07-14T08:00:14.643Z,1.60
2023-07-14T08:02:22.917Z,1.30
2023-07-14T08:04:33.847Z,2.10
2023-07-14T08:06:42.233Z,1.83
2023-07-14T08:08:50.666Z,2.07
2023-07-14T08:10:58.986Z,2.10
2023-07-14T08:13:07.411Z,1.63
2023-07-14T08:15:15.660Z,1.80
2023-07-14T08:17:28.714Z,2.00
2023-07-14T08:19:39.567Z,1.90
2023-07-14T08:21:47.725Z,1.90
2023-07-14T08:23:55.726Z,3.03
2023-07-14T08:26:05.656Z,1.97
2023-07-14T08:28:13.995Z,2.23
2023-07-14T08:30:22.774Z,1.80
2023-07-14T08:32:30.902Z,2.20
2023-07-14T08:34:41.808Z,2.90
2023-07-14T08:36:49.853Z,1.90
2023-07-14T08:38:58.037Z,1.97
2023-07-14T08:41:10.990Z,1.87
2023-07-14T08:43:31.416Z,1.90
2023-07-14T08:45:39.729Z,2.00
2023-07-14T08:47:59.147Z,2.67
2023-07-14T08:50:18.297Z,2.47
2023-07-14T08:52:31.039Z,1.73
2023-07-14T08:54:46.877Z,2.27
2023-07-14T08:56:55.954Z,2.07
2023-07-14T08:59:04.277Z,1.73
2023-07-14T09:01:21.803Z,1.93
2023-07-14T09:03:40.814Z,1.70
2023-07-14T09:05:57.831Z,2.07
2023-07-14T09:08:06.535Z,2.00
2023-07-14T09:10:15.655Z,2.20
2023-07-14T09:12:30.248Z,2.00
2023-07-14T09:15:03.851Z,1.80
2023-07-14T09:17:22.609Z,2.03
2023-07-14T09:19:44.285Z,1.87
2023-07-14T09:22:03.324Z,1.87
2023-07-14T09:24:18.824Z,1.57
2023-07-14T09:26:34.676Z,2.00
2023-07-14T09:28:45.755Z,1.90
2023-07-14T09:30:55.079Z,1.70
2023-07-14T09:33:07.754Z,1.90
2023-07-14T09:35:21.500Z,1.70
2023-07-14T09:37:37.381Z,2.10
2023-07-14T09:39:48.019Z,1.70
2023-07-14T09:41:58.659Z,1.63
2023-07-14T09:44:06.988Z,2.20
2023-07-14T09:46:19.397Z,2.20
2023-07-14T09:48:30.234Z,2.07
2023-07-14T09:50:41.273Z,1.93
2023-07-14T09:52:57.786Z,1.57
2023-07-14T09:55:05.902Z,1.70
2023-07-14T09:57:28.937Z,1.77
2023-07-14T09:59:54.262Z,1.83
2023-07-14T10:02:04.141Z,1.80
2023-07-14T10:04:18.066Z,2.07
2023-07-14T10:06:28.361Z,1.80
2023-07-14T10:08:49.127Z,1.77
2023-07-14T10:11:01.227Z,1.90
2023-07-14T10:13:21.356Z,1.50
2023-07-14T10:15:35.852Z,1.87
2023-07-14T10:17:46.249Z,1.73
2023-07-14T10:19:57.351Z,1.97
2023-07-14T10:22:09.248Z,2.00
2023-07-14T10:24:25.483Z,2.00
2023-07-14T10:26:35.844Z,1.97
2023-07-14T10:28:45.874Z,1.93
2023-07-14T10:31:02.899Z,1.87
2023-07-14T10:33:20.112Z,2.10
2023-07-14T10:35:32.286Z,2.07
2023-07-14T10:37:44.604Z,1.87
2023-07-14T10:40:00.913Z,1.40
2023-07-14T10:42:14.057Z,1.57
2023-07-14T10:44:29.736Z,1.43
2023-07-14T10:46:43.611Z,2.10
2023-07-14T10:48:56.805Z,1.60
2023-07-14T10:51:10.305Z,2.07
2023-07-14T10:53:22.924Z,2.00
2023-07-14T10:55:35.795Z,1.40
2023-07-14T10:57:49.681Z,1.90
2023-07-14T11:00:03.008Z,1.90
2023-07-14T11:02:27.298Z,2.07
2023-07-14T11:04:38.670Z,1.80
2023-07-14T11:06:52.511Z,1.90
2023-07-14T11:09:03.329Z,2.00
2023-07-14T11:11:24.199Z,2.03
2023-07-14T11:13:41.351Z,1.67
2023-07-14T11:15:53.807Z,2.07
2023-07-14T11:18:09.182Z,1.93
2023-07-14T11:20:25.989Z,2.00
2023-07-14T11:23:00.721Z,1.80
2023-07-14T11:25:18.170Z,1.90
2023-07-14T11:27:34.918Z,2.00
2023-07-14T11:29:52.210Z,2.23
2023-07-14T11:32:03.706Z,2.30
2023-07-14T11:34:32.222Z,1.73
2023-07-14T11:36:46.620Z,1.60
2023-07-14T11:39:01.749Z,1.90
2023-07-14T11:41:09.976Z,1.80
2023-07-14T11:43:29.511Z,1.90
2023-07-14T11:45:35.399Z,2.23
2023-07-14T11:47:45.756Z,2.00
2023-07-14T11:49:58.625Z,2.00
2023-07-14T11:52:16.172Z,2.17
2023-07-14T11:54:28.431Z,2.03
2023-07-14T11:56:44.937Z,1.63
2023-07-14T11:59:09.880Z,2.20
2023-07-14T12:01:21.036Z,2.07
2023-07-14T12:03:35.944Z,2.40
2023-07-14T12:05:44.592Z,2.10
2023-07-14T12:08:28.332Z,2.10
2023-07-14T12:10:54.263Z,1.70
2023-07-14T12:13:38.906Z,2.10
2023-07-14T12:15:51.365Z,1.60
2023-07-14T12:18:19.335Z,2.20
2023-07-14T12:20:37.965Z,1.90
2023-07-14T12:22:50.307Z,1.93
2023-07-14T12:25:01.419Z,1.97
2023-07-14T12:27:22.703Z,1.70
2023-07-14T12:29:44.383Z,2.13
2023-07-14T12:32:03.914Z,1.93
2023-07-14T12:34:19.028Z,2.13
2023-07-14T12:36:30.577Z,1.90
2023-07-14T12:38:39.167Z,2.00
2023-07-14T12:40:45.715Z,2.10
2023-07-14T12:42:55.790Z,1.60
2023-07-14T12:45:04.100Z,1.57
2023-07-14T12:47:19.926Z,2.10
2023-07-14T12:49:37.933Z,1.83
2023-07-14T12:51:46.273Z,1.93
2023-07-14T12:54:02.233Z,1.70
2023-07-14T12:56:17.331Z,1.83
2023-07-14T12:58:28.023Z,1.53
2023-07-14T13:00:38.717Z,1.67
2023-07-14T13:02:51.888Z,1.70
2023-07-14T13:05:00.133Z,1.87
2023-07-14T13:07:11.898Z,1.70
2023-07-14T13:09:26.105Z,2.13
2023-07-14T13:11:41.072Z,1.97
2023-07-14T13:13:52.212Z,1.87
2023-07-14T13:16:05.458Z,2.10
2023-07-14T13:18:31.987Z,1.90
2023-07-14T13:20:43.088Z,2.20
2023-07-14T13:23:09.491Z,1.90
2023-07-14T13:25:21.689Z,2.27
2023-07-14T13:27:31.742Z,2.00
2023-07-14T13:29:41.887Z,2.00
2023-07-14T13:31:50.800Z,2.23
2023-07-14T13:34:02.958Z,2.27
2023-07-14T13:36:15.176Z,2.23
2023-07-14T13:38:23.334Z,2.40
2023-07-14T13:40:37.449Z,1.77
2023-07-14T13:42:50.845Z,1.60
2023-07-14T13:45:02.352Z,2.00
2023-07-14T13:47:20.211Z,1.93
2023-07-14T13:49:31.637Z,2.30
2023-07-14T13:51:40.083Z,2.00
2023-07-14T13:53:48.329Z,2.43
2023-07-14T13:55:57.034Z,2.03
2023-07-14T13:58:26.458Z,2.40
2023-07-14T14:00:34.882Z,2.70
2023-07-14T14:02:46.102Z,2.03
2023-07-14T14:04:59.558Z,2.00
2023-07-14T14:07:08.550Z,2.27
2023-07-14T14:09:24.068Z,1.90
2023-07-14T14:11:32.154Z,2.13
2023-07-14T14:13:40.244Z,2.00
2023-07-14T14:15:49.349Z,2.20
2023-07-14T14:18:00.665Z,2.10
2023-07-14T14:20:21.130Z,2.20
2023-07-14T14:22:30.993Z,2.50
2023-07-14T14:24:39.087Z,2.13
2023-07-14T14:26:47.240Z,2.30
2023-07-14T14:28:55.279Z,2.40
2023-07-14T14:31:05.183Z,1.87
2023-07-14T14:33:17.530Z,2.13
2023-07-14T14:35:31.906Z,2.13
2023-07-14T14:37:39.864Z,2.63
2023-07-14T14:39:48.176Z,2.20
2023-07-14T14:41:56.927Z,2.10
2023-07-14T14:44:09.764Z,2.00
2023-07-14T14:46:18.143Z,2.40
2023-07-14T14:48:39.366Z,2.10
2023-07-14T14:50:53.619Z,2.37
2023-07-14T14:53:01.861Z,1.90
2023-07-14T14:55:11.563Z,2.20
2023-07-14T14:57:21.908Z,1.90
2023-07-14T14:59:32.120Z,2.10
2023-07-14T15:01:39.802Z,1.83
2023-07-14T15:03:48.334Z,2.33
2023-07-14T15:05:59.828Z,1.80
2023-07-14T15:08:08.801Z,2.00
2023-07-14T15:10:17.991Z,1.90
2023-07-14T15:12:26.777Z,2.40
2023-07-14T15:14:38.258Z,2.33
2023-07-14T15:16:46.522Z,2.27
2023-07-14T15:18:54.728Z,2.23
2023-07-14T15:21:09.378Z,1.73
2023-07-14T15:23:19.429Z,1.70
2023-07-14T15:25:28.037Z,2.23
2023-07-14T15:27:39.550Z,2.23
2023-07-14T15:29:48.034Z,1.90
2023-07-14T15:31:56.042Z,2.30
2023-07-14T15:34:04.680Z,1.80
2023-07-14T15:36:19.204Z,1.83
2023-07-14T15:38:27.807Z,2.50
2023-07-14T15:40:43.807Z,2.20
2023-07-14T15:42:52.300Z,2.20
2023-07-14T15:45:00.731Z,2.03
2023-07-14T15:47:09.340Z,2.40
2023-07-14T15:49:20.841Z,2.50
2023-07-14T15:51:33.906Z,2.40
2023-07-14T15:53:44.534Z,2.50
2023-07-14T15:55:52.931Z,2.43
2023-07-14T15:58:01.034Z,2.70
2023-07-14T16:00:15.374Z,2.50
2023-07-14T16:02:23.661Z,2.20
2023-07-14T16:04:31.890Z,2.53
2023-07-14T16:06:43.374Z,2.13
2023-07-14T16:08:53.842Z,2.80
2023-07-14T16:11:02.167Z,2.63
2023-07-14T16:13:11.907Z,2.53
2023-07-14T16:15:25.510Z,2.27
2023-07-14T16:17:34.897Z,2.50
2023-07-14T16:19:43.242Z,2.50
2023-07-14T16:21:56.737Z,2.20
2023-07-14T16:24:05.783Z,2.20
2023-07-14T16:26:15.564Z,2.47
2023-07-14T16:28:24.111Z,2.20
2023-07-14T16:30:33.814Z,2.47
2023-07-14T16:32:41.963Z,2.60
2023-07-14T16:34:50.726Z,3.00
2023-07-14T16:37:01.959Z,2.70
2023-07-14T16:39:16.253Z,2.70
2023-07-14T16:41:25.071Z,3.00
2023-07-14T16:43:33.072Z,2.23
2023-07-14T16:45:41.904Z,2.80
2023-07-14T16:47:50.390Z,2.60
2023-07-14T16:50:01.146Z,2.13
2023-07-14T16:52:22.391Z,2.73
2023-07-14T16:54:32.582Z,2.80
2023-07-14T16:56:41.091Z,2.50
2023-07-14T16:58:49.309Z,2.53
2023-07-14T17:00:58.620Z,2.80
2023-07-14T17:03:19.695Z,2.40
2023-07-14T17:05:30.509Z,2.57
2023-07-14T17:07:41.237Z,2.80
2023-07-14T17:09:51.086Z,2.60
2023-07-14T17:12:00.443Z,2.60
2023-07-14T17:14:08.680Z,2.53
2023-07-14T17:16:17.361Z,2.97
2023-07-14T17:18:29.858Z,2.63
2023-07-14T17:20:38.832Z,2.10
2023-07-14T17:22:50.747Z,2.07
2023-07-14T17:24:59.093Z,2.30
2023-07-14T17:27:08.054Z,2.40
2023-07-14T17:29:18.990Z,2.00
2023-07-14T17:31:27.465Z,2.30
2023-07-14T17:33:35.579Z,2.70
2023-07-14T17:35:44.406Z,2.23
2023-07-14T17:37:58.888Z,2.47
2023-07-14T17:40:17.948Z,2.30
2023-07-14T17:42:29.261Z,2.37
2023-07-14T17:44:37.282Z,2.40
2023-07-14T17:46:45.339Z,2.77
2023-07-14T17:48:53.422Z,2.80
2023-07-14T17:51:05.439Z,2.63
2023-07-14T17:53:23.723Z,2.73
2023-07-14T17:55:31.885Z,2.90
2023-07-14T17:57:40.643Z,3.10
2023-07-14T17:59:52.672Z,2.43
2023-07-14T18:02:08.618Z,2.90
2023-07-14T18:04:17.031Z,2.60
2023-07-14T18:06:23.465Z,2.60
2023-07-14T18:08:35.531Z,3.00
2023-07-14T18:10:44.753Z,2.87
2023-07-14T18:12:53.083Z,2.33
2023-07-14T18:15:01.323Z,2.73
2023-07-14T18:17:09.697Z,2.93
2023-07-14T18:19:18.728Z,3.10
2023-07-14T18:21:27.568Z,2.73
2023-07-14T18:23:39.382Z,2.80
2023-07-14T18:25:47.536Z,2.57
2023-07-14T18:27:57.149Z,2.77
2023-07-14T18:30:05.933Z,2.60
2023-07-14T18:32:15.146Z,3.07
2023-07-14T18:34:24.724Z,2.60
2023-07-14T18:36:35.873Z,2.70
2023-07-14T18:38:46.409Z,3.00
2023-07-14T18:40:55.424Z,2.50
2023-07-14T18:43:03.538Z,2.87
2023-07-14T18:45:16.147Z,3.07
2023-07-14T18:47:24.253Z,2.60
2023-07-14T18:49:34.942Z,2.53
2023-07-14T18:51:44.433Z,3.03
2023-07-14T18:53:59.223Z,2.63
2023-07-14T18:56:08.256Z,2.63
2023-07-14T18:58:19.818Z,2.77
2023-07-14T19:00:27.933Z,2.40
2023-07-14T19:02:39.057Z,2.57
2023-07-14T19:04:47.402Z,3.37
2023-07-14T19:06:56.950Z,3.30
2023-07-14T19:09:17.633Z,2.87
2023-07-14T19:11:28.228Z,2.43
2023-07-14T19:13:39.896Z,2.40
2023-07-14T19:15:49.971Z,2.60
2023-07-14T19:17:58.238Z,2.97
2023-07-14T19:20:11.446Z,2.47
2023-07-14T19:22:25.578Z,3.20
2023-07-14T19:24:36.897Z,2.80
2023-07-14T19:26:45.730Z,2.47
2023-07-14T19:28:54.703Z,2.80
2023-07-14T19:31:03.077Z,3.03
2023-07-14T19:33:18.117Z,2.80
2023-07-14T19:35:26.140Z,3.00
2023-07-14T19:37:34.285Z,2.80
2023-07-14T19:39:46.056Z,3.03
2023-07-14T19:41:56.088Z,3.30
2023-07-14T19:44:06.399Z,2.55
2023-07-14T19:46:16.817Z,2.90
2023-07-14T19:48:26.878Z,3.33
2023-07-14T19:50:34.865Z,3.53
2023-07-14T19:52:43.240Z,3.25
2023-07-14T19:54:54.016Z,3.37
2023-07-14T19:57:02.028Z,3.10
2023-07-14T19:59:18.109Z,2.80
2023-07-14T20:01:26.760Z,3.15
2023-07-14T20:03:34.896Z,3.20
2023-07-14T20:05:43.744Z,3.53
2023-07-14T20:07:52.816Z,3.28
2023-07-14T20:10:08.142Z,3.42
2023-07-14T20:12:19.722Z,3.10
2023-07-14T20:14:30.763Z,3.10
2023-07-14T20:16:38.870Z,3.00
2023-07-14T20:18:47.430Z,3.53
2023-07-14T20:20:57.746Z,2.80
2023-07-14T20:23:07.088Z,2.97
2023-07-14T20:25:21.290Z,3.30
2023-07-14T20:27:29.758Z,2.97
2023-07-14T20:29:37.730Z,3.15
2023-07-14T20:31:48.583Z,3.30
2023-07-14T20:33:56.844Z,3.72
2023-07-14T20:36:05.493Z,2.92
2023-07-14T20:38:16.408Z,3.58
2023-07-14T20:40:29.688Z,3.30
2023-07-14T20:42:37.846Z,3.03
2023-07-14T20:44:47.836Z,2.97
2023-07-14T20:46:56.003Z,3.05
2023-07-14T20:49:17.638Z,3.10
2023-07-14T20:51:27.962Z,3.28
2023-07-14T20:53:36.272Z,3.40
2023-07-14T20:55:49.585Z,3.50
2023-07-14T20:57:58.289Z,3.85
2023-07-14T21:00:09.085Z,3.42
2023-07-14T21:02:23.742Z,3.33
2023-07-14T21:04:31.916Z,3.80
2023-07-14T21:06:40.210Z,3.65
2023-07-14T21:08:49.022Z,3.35
2023-07-14T21:11:05.938Z,3.20
2023-07-14T21:13:19.680Z,3.65
2023-07-14T21:15:28.336Z,3.25
2023-07-14T21:17:36.341Z,3.25
2023-07-14T21:19:44.979Z,3.72
2023-07-14T21:21:52.890Z,3.70
2023-07-14T21:24:02.658Z,3.55
2023-07-14T21:26:21.064Z,3.45
2023-07-14T21:28:30.502Z,3.35
2023-07-14T21:30:38.725Z,3.83
2023-07-14T21:32:47.103Z,3.80
2023-07-14T21:34:56.640Z,3.15
2023-07-14T21:37:04.680Z,4.13
2023-07-14T21:39:16.221Z,3.50
2023-07-14T21:41:26.455Z,3.70
2023-07-14T21:43:40.064Z,3.28
2023-07-14T21:45:49.556Z,2.92
2023-07-14T21:47:57.638Z,3.22
2023-07-14T21:50:05.793Z,3.60
2023-07-14T21:52:26.298Z,3.33
2023-07-14T21:54:35.017Z,3.50
2023-07-14T21:56:46.091Z,3.10
2023-07-14T21:58:54.262Z,3.40
2023-07-14T22:01:03.534Z,3.70
2023-07-14T22:03:11.567Z,3.50
2023-07-14T22:05:20.443Z,3.15
2023-07-14T22:07:29.366Z,3.50
2023-07-14T22:09:37.662Z,3.33
2023-07-14T22:11:48.637Z,3.70
2023-07-14T22:13:56.951Z,3.70
2023-07-14T22:16:06.625Z,3.35
2023-07-14T22:18:19.217Z,3.33
2023-07-14T22:20:32.323Z,2.90
2023-07-14T22:22:40.636Z,3.05
2023-07-14T22:24:50.576Z,3.17
2023-07-14T22:27:02.629Z,3.20
2023-07-14T22:29:11.124Z,4.03
2023-07-14T22:31:21.859Z,3.00
2023-07-14T22:33:34.608Z,3.17
2023-07-14T22:35:42.765Z,2.80
2023-07-14T22:37:50.962Z,3.22
2023-07-14T22:39:58.981Z,3.70
2023-07-14T22:42:10.149Z,3.47
2023-07-14T22:44:20.165Z,3.35
2023-07-14T22:46:26.216Z,3.28
2023-07-14T22:48:34.481Z,3.50
2023-07-14T22:50:43.003Z,3.17
2023-07-14T22:52:51.582Z,3.50
2023-07-14T22:54:59.696Z,3.53
2023-07-14T22:57:15.678Z,3.40
2023-07-14T22:59:23.702Z,3.00
2023-07-14T23:01:35.557Z,3.10
2023-07-14T23:03:44.183Z,4.05
2023-07-14T23:05:53.926Z,3.80
2023-07-14T23:08:02.026Z,3.28
2023-07-14T23:10:12.221Z,3.60
2023-07-14T23:12:22.947Z,4.07
2023-07-14T23:14:31.049Z,3.55
2023-07-14T23:16:39.098Z,3.85
2023-07-14T23:18:47.978Z,3.30
2023-07-14T23:21:00.001Z,3.78
2023-07-14T23:23:13.108Z,3.60
2023-07-14T23:25:23.570Z,3.22
2023-07-14T23:27:34.324Z,3.35
2023-07-14T23:29:43.950Z,3.38
2023-07-14T23:31:54.907Z,3.30
2023-07-14T23:34:03.062Z,3.40
2023-07-14T23:36:14.753Z,3.85
2023-07-14T23:38:23.831Z,3.20
2023-07-14T23:40:31.854Z,2.75
2023-07-14T23:42:42.435Z,3.60
2023-07-14T23:44:50.435Z,2.72
2023-07-14T23:46:58.675Z,3.03
2023-07-14T23:49:07.332Z,3.20
2023-07-14T23:51:18.699Z,3.30
2023-07-14T23:53:37.151Z,3.20
2023-07-14T23:55:45.121Z,2.50
2023-07-14T23:57:56.297Z,2.30
